TimePST,TemperatureF,Dew PointF,Humidity,Sea Level PressureIn,VisibilityMPH,Wind Direction,Wind SpeedMPH,Gust SpeedMPH,PrecipitationIn,Events,Conditions,WindDirDegrees,DateUTC
12:53 AM,39.0,37.9,96,30.14,4.0,ESE,9.2,-,0.01,Rain,Light Rain,110,2013-01-25 08:53:00
1:18 AM,39.2,37.4,93,30.13,5.0,ESE,8.1,-,0.00,Rain,Light Rain,120,2013-01-25 09:18:00
1:53 AM,39.0,37.9,96,30.12,4.0,ESE,6.9,-,0.04,Rain,Light Rain,120,2013-01-25 09:53:00
2:14 AM,39.2,37.4,93,30.12,8.0,SE,8.1,-,0.00,,Overcast,130,2013-01-25 10:14:00
2:30 AM,39.2,37.4,93,30.12,8.0,ESE,8.1,-,0.00,,Overcast,120,2013-01-25 10:30:00
2:38 AM,39.2,37.4,93,30.12,9.0,ESE,8.1,-,0.00,,Overcast,120,2013-01-25 10:38:00
2:53 AM,39.0,37.9,96,30.12,9.0,ESE,6.9,-,0.00,,Overcast,120,2013-01-25 10:53:00
3:53 AM,39.0,37.9,96,30.10,3.0,ESE,6.9,-,0.03,Rain,Light Rain,110,2013-01-25 11:53:00
4:08 AM,39.2,37.4,93,30.10,5.0,ESE,6.9,-,0.01,Rain,Light Rain,110,2013-01-25 12:08:00
4:19 AM,39.2,37.4,93,30.10,5.0,ESE,5.8,-,0.01,Rain,Light Rain,110,2013-01-25 12:19:00
4:53 AM,39.0,37.9,96,30.10,4.0,ESE,6.9,-,0.04,Rain,Light Rain,120,2013-01-25 12:53:00
5:53 AM,39.0,37.0,93,30.09,10.0,ESE,6.9,-,0.01,,Overcast,120,2013-01-25 13:53:00
6:27 AM,39.2,37.4,93,30.10,7.0,ESE,5.8,-,N/A,,Overcast,110,2013-01-25 14:27:00
6:43 AM,39.2,37.4,93,30.09,7.0,ESE,4.6,-,N/A,,Overcast,110,2013-01-25 14:43:00
6:53 AM,39.0,37.9,96,30.09,9.0,ESE,5.8,-,N/A,,Overcast,110,2013-01-25 14:53:00
7:34 AM,39.2,37.4,93,30.08,10.0,ESE,6.9,-,N/A,,Overcast,120,2013-01-25 15:34:00
7:41 AM,39.2,37.4,93,30.09,10.0,SE,8.1,-,N/A,,Overcast,130,2013-01-25 15:41:00
7:53 AM,39.0,37.0,93,30.08,6.0,SE,6.9,-,0.01,Rain,Light Rain,130,2013-01-25 15:53:00
8:53 AM,39.0,37.9,96,30.09,10.0,ESE,5.8,-,0.01,,Overcast,120,2013-01-25 16:53:00
9:44 AM,39.2,37.4,93,30.08,6.0,SE,5.8,-,0.01,Rain,Light Rain,130,2013-01-25 17:44:00
9:51 AM,39.2,37.4,93,30.08,7.0,SE,6.9,-,0.01,Rain,Light Rain,130,2013-01-25 17:51:00
9:53 AM,39.9,37.9,93,30.08,7.0,ESE,6.9,-,0.01,Rain,Light Rain,120,2013-01-25 17:53:00
10:27 AM,39.2,39.2,100,30.08,4.0,ESE,4.6,-,0.01,Rain,Light Rain,120,2013-01-25 18:27:00
10:35 AM,39.2,39.2,100,30.08,4.0,ESE,5.8,-,0.02,Rain,Light Rain,120,2013-01-25 18:35:00
10:53 AM,41.0,39.0,93,30.07,6.0,ESE,5.8,-,0.02,Rain,Light Rain,110,2013-01-25 18:53:00
11:14 AM,41.0,39.2,93,30.06,6.0,ESE,4.6,-,0.00,Rain,Light Rain,110,2013-01-25 19:14:00
11:23 AM,41.0,39.2,93,30.06,6.0,ESE,5.8,-,0.00,,Overcast,110,2013-01-25 19:23:00
11:53 AM,41.0,39.0,93,30.05,6.0,ESE,5.8,-,0.00,,Overcast,120,2013-01-25 19:53:00
12:01 PM,41.0,39.2,93,30.05,7.0,ESE,5.8,-,N/A,,Overcast,120,2013-01-25 20:01:00
12:53 PM,42.1,39.9,92,30.03,8.0,SE,8.1,-,N/A,,Overcast,130,2013-01-25 20:53:00
1:53 PM,44.1,42.1,93,30.01,10.0,SE,3.5,-,N/A,,Overcast,140,2013-01-25 21:53:00
2:09 PM,44.6,42.8,93,30.01,10.0,Calm,Calm,-,N/A,,Overcast,0,2013-01-25 22:09:00
2:53 PM,46.0,43.0,89,30.00,10.0,SE,5.8,-,N/A,,Mostly Cloudy,130,2013-01-25 22:53:00
3:11 PM,44.6,42.8,93,29.99,10.0,ESE,5.8,-,N/A,,Mostly Cloudy,110,2013-01-25 23:11:00
3:44 PM,44.6,42.8,93,29.99,9.0,Calm,Calm,-,N/A,,Scattered Clouds,0,2013-01-25 23:44:00
3:53 PM,45.0,42.1,90,29.99,8.0,Calm,Calm,-,N/A,,Partly Cloudy,0,2013-01-25 23:53:00
4:21 PM,44.6,41.0,87,29.99,8.0,East,3.5,-,N/A,,Scattered Clouds,100,2013-01-26 00:21:00
4:53 PM,43.0,39.9,89,29.99,10.0,Calm,Calm,-,N/A,,Clear,0,2013-01-26 00:53:00
5:19 PM,41.0,39.2,93,30.00,6.0,Calm,Calm,-,N/A,,Mostly Cloudy,0,2013-01-26 01:19:00
5:26 PM,42.8,39.2,87,30.00,8.0,Calm,Calm,-,N/A,,Mostly Cloudy,0,2013-01-26 01:26:00
5:53 PM,39.9,37.9,93,30.00,8.0,Calm,Calm,-,N/A,,Mostly Cloudy,0,2013-01-26 01:53:00
6:08 PM,39.2,37.4,93,29.99,1.8,Calm,Calm,-,N/A,,Mostly Cloudy,0,2013-01-26 02:08:00
6:11 PM,39.2,37.4,93,29.99,1.2,Calm,Calm,-,N/A,,Scattered Clouds,0,2013-01-26 02:11:00
6:23 PM,37.4,35.6,93,29.99,0.8,Calm,Calm,-,N/A,,Mist,0,2013-01-26 02:23:00
6:31 PM,35.6,33.8,93,29.99,0.5,Calm,Calm,-,N/A,Fog,Fog,0,2013-01-26 02:31:00
6:37 PM,37.4,35.6,93,29.99,1.2,Calm,Calm,-,0.01,,Partly Cloudy,0,2013-01-26 02:37:00
6:53 PM,37.0,35.1,93,29.99,2.5,Calm,Calm,-,0.01,,Partly Cloudy,0,2013-01-26 02:53:00
7:00 PM,37.4,35.6,93,29.98,7.0,East,3.5,-,N/A,,Clear,100,2013-01-26 03:00:00
7:11 PM,37.4,35.6,93,29.98,8.0,Calm,Calm,-,N/A,,Scattered Clouds,0,2013-01-26 03:11:00
7:29 PM,37.4,37.4,100,29.98,7.0,Calm,Calm,-,N/A,,Mostly Cloudy,0,2013-01-26 03:29:00
7:53 PM,37.9,36.0,93,29.98,1.8,ESE,3.5,-,N/A,,Overcast,110,2013-01-26 03:53:00
8:14 PM,37.4,37.4,100,29.98,0.8,Calm,Calm,-,N/A,,Overcast,0,2013-01-26 04:14:00
8:30 PM,39.2,37.4,93,29.98,1.8,East,3.5,-,N/A,,Overcast,100,2013-01-26 04:30:00
8:32 PM,39.2,37.4,93,29.98,4.0,ESE,4.6,-,N/A,,Overcast,110,2013-01-26 04:32:00
8:53 PM,39.0,37.9,96,29.98,10.0,East,3.5,-,N/A,,Overcast,90,2013-01-26 04:53:00
9:30 PM,39.2,39.2,100,29.98,10.0,Calm,Calm,-,N/A,,Overcast,0,2013-01-26 05:30:00
9:53 PM,39.9,37.9,93,29.98,9.0,ESE,6.9,-,N/A,,Overcast,110,2013-01-26 05:53:00
10:07 PM,39.2,37.4,93,29.98,5.0,East,4.6,-,N/A,,Overcast,100,2013-01-26 06:07:00
10:47 PM,39.2,37.4,93,29.98,1.8,SE,5.8,-,N/A,,Overcast,130,2013-01-26 06:47:00
10:53 PM,39.0,37.9,96,29.99,1.0,ESE,6.9,-,N/A,,Overcast,120,2013-01-26 06:53:00
11:01 PM,39.2,37.4,93,29.98,0.8,SE,8.1,-,N/A,,Overcast,130,2013-01-26 07:01:00
11:47 PM,41.0,39.2,93,29.97,1.5,ESE,6.9,-,N/A,,Overcast,120,2013-01-26 07:47:00
11:48 PM,41.0,39.9,96,29.98,1.5,ESE,8.1,-,N/A,,Overcast,120,2013-01-26 07:48:00